sensor_id;sensor_type;location;lat;lon;timestamp;P1;durP1;ratioP1;P2;durP2;ratioP2
13204;SDS011;6667;52.634;9.226;2023-08-08T06:50:58;9.93;;;3.10;;
13204;SDS011;6667;52.634;9.226;2023-08-08T06:53:25;6.27;;;2.60;;
13204;SDS011;6667;52.634;9.226;2023-08-08T06:55:52;5.07;;;2.47;;
13204;SDS011;6667;52.634;9.226;2023-08-08T06:58:19;7.50;;;2.80;;
13204;SDS011;6667;52.634;9.226;2023-08-08T07:00:45;5.57;;;2.37;;
13204;SDS011;6667;52.634;9.226;2023-08-08T07:03:12;4.57;;;2.40;;
13204;SDS011;6667;52.634;9.226;2023-08-08T07:05:39;4.57;;;2.13;;
13204;SDS011;6667;52.634;9.226;2023-08-08T07:08:07;3.70;;;2.13;;
13204;SDS011;6667;52.634;9.226;2023-08-08T07:10:34;3.45;;;2.20;;
13204;SDS011;6667;52.634;9.226;2023-08-08T07:13:01;3.33;;;1.88;;
13204;SDS011;6667;52.634;9.226;2023-08-08T07:15:28;3.00;;;1.60;;
13204;SDS011;6667;52.634;9.226;2023-08-08T07:17:55;6.40;;;2.55;;
13204;SDS011;6667;52.634;9.226;2023-08-08T07:20:22;4.68;;;1.80;;
13204;SDS011;6667;52.634;9.226;2023-08-08T07:22:49;3.30;;;1.73;;
13204;SDS011;6667;52.634;9.226;2023-08-08T07:25:17;6.07;;;1.92;;
13204;SDS011;6667;52.634;9.226;2023-08-08T07:27:44;3.45;;;1.65;;
13204;SDS011;6667;52.634;9.226;2023-08-08T07:30:11;7.25;;;2.03;;
13204;SDS011;6667;52.634;9.226;2023-08-08T07:32:38;3.35;;;2.10;;
13204;SDS011;6667;52.634;9.226;2023-08-08T07:35:05;4.85;;;1.85;;
13204;SDS011;6667;52.634;9.226;2023-08-08T07:37:33;5.32;;;1.70;;
13204;SDS011;6667;52.634;9.226;2023-08-08T07:40:00;3.28;;;1.50;;
13204;SDS011;6667;52.634;9.226;2023-08-08T07:42:30;4.53;;;1.85;;
13204;SDS011;6667;52.634;9.226;2023-08-08T07:44:57;5.90;;;2.40;;
13204;SDS011;6667;52.634;9.226;2023-08-08T07:47:23;3.40;;;1.33;;
13204;SDS011;6667;52.634;9.226;2023-08-08T07:49:50;2.78;;;1.80;;
13204;SDS011;6667;52.634;9.226;2023-08-08T07:52:17;3.25;;;1.60;;
13204;SDS011;6667;52.634;9.226;2023-08-08T07:54:44;4.30;;;1.38;;
13204;SDS011;6667;52.634;9.226;2023-08-08T07:57:11;4.38;;;1.83;;
13204;SDS011;6667;52.634;9.226;2023-08-08T07:59:39;5.78;;;2.30;;
13204;SDS011;6667;52.634;9.226;2023-08-08T08:02:07;5.00;;;1.60;;
13204;SDS011;6667;52.634;9.226;2023-08-08T08:04:34;4.55;;;1.40;;
13204;SDS011;6667;52.634;9.226;2023-08-08T08:07:01;5.03;;;1.50;;
13204;SDS011;6667;52.634;9.226;2023-08-08T08:09:28;4.32;;;1.77;;
13204;SDS011;6667;52.634;9.226;2023-08-08T08:11:55;5.80;;;1.63;;
13204;SDS011;6667;52.634;9.226;2023-08-08T08:14:22;3.55;;;1.17;;
13204;SDS011;6667;52.634;9.226;2023-08-08T08:16:50;2.10;;;1.15;;
13204;SDS011;6667;52.634;9.226;2023-08-08T08:19:17;5.18;;;1.73;;
13204;SDS011;6667;52.634;9.226;2023-08-08T08:21:45;5.38;;;1.70;;
13204;SDS011;6667;52.634;9.226;2023-08-08T08:24:11;3.58;;;1.67;;
13204;SDS011;6667;52.634;9.226;2023-08-08T08:26:38;5.47;;;2.55;;
13204;SDS011;6667;52.634;9.226;2023-08-08T08:29:05;4.60;;;1.73;;
13204;SDS011;6667;52.634;9.226;2023-08-08T08:31:32;4.82;;;1.95;;
13204;SDS011;6667;52.634;9.226;2023-08-08T08:34:00;2.90;;;1.25;;
13204;SDS011;6667;52.634;9.226;2023-08-08T08:36:27;4.63;;;1.73;;
13204;SDS011;6667;52.634;9.226;2023-08-08T08:38:53;5.78;;;1.42;;
13204;SDS011;6667;52.634;9.226;2023-08-08T08:41:20;6.20;;;1.42;;
13204;SDS011;6667;52.634;9.226;2023-08-08T08:43:54;4.60;;;1.58;;
13204;SDS011;6667;52.634;9.226;2023-08-08T08:46:21;5.65;;;1.33;;
13204;SDS011;6667;52.634;9.226;2023-08-08T08:48:48;2.63;;;1.20;;
13204;SDS011;6667;52.634;9.226;2023-08-08T08:51:17;4.43;;;1.58;;
13204;SDS011;6667;52.634;9.226;2023-08-08T08:53:45;2.83;;;1.23;;
13204;SDS011;6667;52.634;9.226;2023-08-08T08:56:13;3.42;;;1.20;;
13204;SDS011;6667;52.634;9.226;2023-08-08T08:58:41;4.13;;;1.58;;
13204;SDS011;6667;52.634;9.226;2023-08-08T09:01:07;2.67;;;1.30;;
13204;SDS011;6667;52.634;9.226;2023-08-08T09:03:35;5.47;;;1.77;;
13204;SDS011;6667;52.634;9.226;2023-08-08T09:06:02;4.15;;;1.50;;
13204;SDS011;6667;52.634;9.226;2023-08-08T09:08:31;4.22;;;1.48;;
13204;SDS011;6667;52.634;9.226;2023-08-08T09:10:58;4.22;;;1.52;;
13204;SDS011;6667;52.634;9.226;2023-08-08T09:13:25;3.05;;;1.30;;
13204;SDS011;6667;52.634;9.226;2023-08-08T09:15:52;4.40;;;1.10;;
13204;SDS011;6667;52.634;9.226;2023-08-08T09:18:22;2.13;;;1.30;;
13204;SDS011;6667;52.634;9.226;2023-08-08T09:20:50;2.05;;;1.27;;
13204;SDS011;6667;52.634;9.226;2023-08-08T09:23:17;3.90;;;1.02;;
13204;SDS011;6667;52.634;9.226;2023-08-08T09:25:45;2.53;;;1.27;;
13204;SDS011;6667;52.634;9.226;2023-08-08T09:28:12;4.32;;;1.42;;
13204;SDS011;6667;52.634;9.226;2023-08-08T09:30:38;1.52;;;1.33;;
13204;SDS011;6667;52.634;9.226;2023-08-08T09:33:07;2.55;;;1.30;;
13204;SDS011;6667;52.634;9.226;2023-08-08T09:35:37;2.88;;;1.40;;
13204;SDS011;6667;52.634;9.226;2023-08-08T09:38:04;3.60;;;1.40;;
13204;SDS011;6667;52.634;9.226;2023-08-08T09:40:33;2.97;;;1.42;;
13204;SDS011;6667;52.634;9.226;2023-08-08T09:43:01;2.65;;;1.42;;
13204;SDS011;6667;52.634;9.226;2023-08-08T09:45:34;3.40;;;1.17;;
13204;SDS011;6667;52.634;9.226;2023-08-08T09:48:03;2.60;;;1.20;;
13204;SDS011;6667;52.634;9.226;2023-08-08T09:50:31;2.10;;;1.00;;
13204;SDS011;6667;52.634;9.226;2023-08-08T09:53:00;3.78;;;1.55;;
13204;SDS011;6667;52.634;9.226;2023-08-08T09:55:28;3.67;;;1.23;;
13204;SDS011;6667;52.634;9.226;2023-08-08T09:57:55;4.65;;;0.98;;
13204;SDS011;6667;52.634;9.226;2023-08-08T10:00:24;1.48;;;1.00;;
13204;SDS011;6667;52.634;9.226;2023-08-08T10:02:53;0.98;;;0.93;;
13204;SDS011;6667;52.634;9.226;2023-08-08T10:05:20;3.33;;;1.13;;
13204;SDS011;6667;52.634;9.226;2023-08-08T10:07:48;1.92;;;1.23;;
13204;SDS011;6667;52.634;9.226;2023-08-08T10:10:15;4.35;;;1.10;;
13204;SDS011;6667;52.634;9.226;2023-08-08T10:12:43;1.83;;;1.05;;
13204;SDS011;6667;52.634;9.226;2023-08-08T10:15:11;2.58;;;1.20;;
13204;SDS011;6667;52.634;9.226;2023-08-08T10:17:39;2.65;;;1.05;;
13204;SDS011;6667;52.634;9.226;2023-08-08T10:20:08;2.28;;;1.00;;
13204;SDS011;6667;52.634;9.226;2023-08-08T10:22:37;1.95;;;0.80;;
13204;SDS011;6667;52.634;9.226;2023-08-08T10:25:08;1.38;;;0.93;;
13204;SDS011;6667;52.634;9.226;2023-08-08T10:27:35;3.47;;;0.95;;
13204;SDS011;6667;52.634;9.226;2023-08-08T10:30:04;2.97;;;0.90;;
13204;SDS011;6667;52.634;9.226;2023-08-08T10:32:40;1.92;;;0.80;;
13204;SDS011;6667;52.634;9.226;2023-08-08T10:35:08;3.15;;;0.95;;
13204;SDS011;6667;52.634;9.226;2023-08-08T10:37:35;4.40;;;1.00;;
13204;SDS011;6667;52.634;9.226;2023-08-08T10:40:03;4.13;;;0.70;;
13204;SDS011;6667;52.634;9.226;2023-08-08T10:42:32;2.50;;;0.90;;
13204;SDS011;6667;52.634;9.226;2023-08-08T10:45:08;2.63;;;0.82;;
13204;SDS011;6667;52.634;9.226;2023-08-08T10:47:37;1.92;;;0.90;;
13204;SDS011;6667;52.634;9.226;2023-08-08T10:50:06;1.33;;;0.88;;
13204;SDS011;6667;52.634;9.226;2023-08-08T10:52:38;1.17;;;0.80;;
13204;SDS011;6667;52.634;9.226;2023-08-08T10:55:18;3.17;;;0.95;;
13204;SDS011;6667;52.634;9.226;2023-08-08T10:57:51;2.58;;;0.85;;
13204;SDS011;6667;52.634;9.226;2023-08-08T11:00:20;3.55;;;0.93;;
13204;SDS011;6667;52.634;9.226;2023-08-08T11:02:51;3.50;;;0.70;;
13204;SDS011;6667;52.634;9.226;2023-08-08T11:05:20;2.58;;;1.23;;
13204;SDS011;6667;52.634;9.226;2023-08-08T11:07:48;1.23;;;0.82;;
13204;SDS011;6667;52.634;9.226;2023-08-08T11:10:15;2.10;;;1.02;;
13204;SDS011;6667;52.634;9.226;2023-08-08T11:12:43;4.07;;;0.90;;
13204;SDS011;6667;52.634;9.226;2023-08-08T11:15:19;0.70;;;0.70;;
13204;SDS011;6667;52.634;9.226;2023-08-08T11:17:46;1.30;;;0.98;;
13204;SDS011;6667;52.634;9.226;2023-08-08T11:20:12;1.27;;;0.93;;
13204;SDS011;6667;52.634;9.226;2023-08-08T11:22:40;2.95;;;0.88;;
13204;SDS011;6667;52.634;9.226;2023-08-08T11:25:07;2.80;;;0.70;;
13204;SDS011;6667;52.634;9.226;2023-08-08T11:27:34;6.45;;;0.90;;
13204;SDS011;6667;52.634;9.226;2023-08-08T11:30:02;3.85;;;1.13;;
13204;SDS011;6667;52.634;9.226;2023-08-08T11:32:29;3.63;;;1.08;;
13204;SDS011;6667;52.634;9.226;2023-08-08T11:34:56;2.15;;;1.08;;
13204;SDS011;6667;52.634;9.226;2023-08-08T11:37:23;0.80;;;0.60;;
13204;SDS011;6667;52.634;9.226;2023-08-08T11:39:51;2.22;;;1.00;;
13204;SDS011;6667;52.634;9.226;2023-08-08T11:42:18;1.15;;;0.68;;
13204;SDS011;6667;52.634;9.226;2023-08-08T11:44:45;1.80;;;0.88;;
13204;SDS011;6667;52.634;9.226;2023-08-08T11:47:12;3.90;;;1.02;;
13204;SDS011;6667;52.634;9.226;2023-08-08T11:49:40;1.48;;;0.90;;
13204;SDS011;6667;52.634;9.226;2023-08-08T11:52:07;3.15;;;0.90;;
13204;SDS011;6667;52.634;9.226;2023-08-08T11:54:36;1.52;;;0.80;;
13204;SDS011;6667;52.634;9.226;2023-08-08T11:57:04;1.95;;;0.85;;
13204;SDS011;6667;52.634;9.226;2023-08-08T11:59:31;0.98;;;0.60;;
13204;SDS011;6667;52.634;9.226;2023-08-08T12:01:58;3.30;;;1.20;;
13204;SDS011;6667;52.634;9.226;2023-08-08T12:04:25;1.95;;;0.70;;
13204;SDS011;6667;52.634;9.226;2023-08-08T12:06:57;4.32;;;1.02;;
13204;SDS011;6667;52.634;9.226;2023-08-08T12:09:28;1.92;;;0.80;;
13204;SDS011;6667;52.634;9.226;2023-08-08T12:11:55;2.15;;;1.08;;
13204;SDS011;6667;52.634;9.226;2023-08-08T12:14:26;1.50;;;1.00;;
13204;SDS011;6667;52.634;9.226;2023-08-08T12:16:53;1.52;;;0.80;;
13204;SDS011;6667;52.634;9.226;2023-08-08T12:19:22;3.08;;;0.85;;
13204;SDS011;6667;52.634;9.226;2023-08-08T12:21:50;1.75;;;0.70;;
13204;SDS011;6667;52.634;9.226;2023-08-08T12:24:17;1.55;;;0.70;;
13204;SDS011;6667;52.634;9.226;2023-08-08T12:26:43;1.63;;;0.80;;
13204;SDS011;6667;52.634;9.226;2023-08-08T12:29:10;8.32;;;2.40;;
13204;SDS011;6667;52.634;9.226;2023-08-08T12:31:39;3.20;;;1.60;;
13204;SDS011;6667;52.634;9.226;2023-08-08T12:34:06;2.67;;;0.90;;
13204;SDS011;6667;52.634;9.226;2023-08-08T12:36:33;2.17;;;0.63;;
13204;SDS011;6667;52.634;9.226;2023-08-08T12:38:59;3.15;;;0.90;;
13204;SDS011;6667;52.634;9.226;2023-08-08T12:41:26;1.80;;;0.70;;
13204;SDS011;6667;52.634;9.226;2023-08-08T12:43:54;2.08;;;0.90;;
13204;SDS011;6667;52.634;9.226;2023-08-08T12:46:21;1.70;;;0.60;;
13204;SDS011;6667;52.634;9.226;2023-08-08T12:48:49;0.90;;;0.70;;
13204;SDS011;6667;52.634;9.226;2023-08-08T12:51:16;1.10;;;0.68;;
13204;SDS011;6667;52.634;9.226;2023-08-08T12:53:43;3.83;;;0.93;;
13204;SDS011;6667;52.634;9.226;2023-08-08T12:56:10;1.85;;;0.60;;
13204;SDS011;6667;52.634;9.226;2023-08-08T12:58:36;2.75;;;0.80;;
13204;SDS011;6667;52.634;9.226;2023-08-08T13:01:04;0.88;;;0.60;;
13204;SDS011;6667;52.634;9.226;2023-08-08T13:03:30;0.50;;;0.50;;
13204;SDS011;6667;52.634;9.226;2023-08-08T13:06:00;1.00;;;0.63;;
13204;SDS011;6667;52.634;9.226;2023-08-08T13:08:27;1.25;;;0.63;;
13204;SDS011;6667;52.634;9.226;2023-08-08T13:10:53;1.33;;;0.73;;
13204;SDS011;6667;52.634;9.226;2023-08-08T13:13:20;1.75;;;0.80;;
13204;SDS011;6667;52.634;9.226;2023-08-08T13:15:50;2.92;;;0.98;;
13204;SDS011;6667;52.634;9.226;2023-08-08T13:18:16;1.23;;;0.70;;
13204;SDS011;6667;52.634;9.226;2023-08-08T13:20:43;1.35;;;0.80;;
13204;SDS011;6667;52.634;9.226;2023-08-08T13:23:11;2.10;;;0.80;;
13204;SDS011;6667;52.634;9.226;2023-08-08T13:25:38;3.08;;;1.05;;
13204;SDS011;6667;52.634;9.226;2023-08-08T13:28:06;3.03;;;0.90;;
13204;SDS011;6667;52.634;9.226;2023-08-08T13:30:33;1.17;;;0.90;;
13204;SDS011;6667;52.634;9.226;2023-08-08T13:33:00;1.77;;;0.80;;
13204;SDS011;6667;52.634;9.226;2023-08-08T13:35:27;1.35;;;0.80;;
13204;SDS011;6667;52.634;9.226;2023-08-08T13:37:55;1.55;;;0.82;;
13204;SDS011;6667;52.634;9.226;2023-08-08T13:40:23;2.30;;;0.80;;
13204;SDS011;6667;52.634;9.226;2023-08-08T13:42:49;1.73;;;0.93;;
13204;SDS011;6667;52.634;9.226;2023-08-08T13:45:16;2.65;;;0.80;;
13204;SDS011;6667;52.634;9.226;2023-08-08T13:47:44;0.80;;;0.60;;
13204;SDS011;6667;52.634;9.226;2023-08-08T13:50:11;2.17;;;0.75;;
13204;SDS011;6667;52.634;9.226;2023-08-08T13:52:38;0.98;;;0.57;;
13204;SDS011;6667;52.634;9.226;2023-08-08T13:55:05;1.23;;;0.60;;
13204;SDS011;6667;52.634;9.226;2023-08-08T13:57:33;0.82;;;0.65;;
13204;SDS011;6667;52.634;9.226;2023-08-08T14:00:00;0.77;;;0.60;;
13204;SDS011;6667;52.634;9.226;2023-08-08T14:02:28;3.25;;;0.70;;
13204;SDS011;6667;52.634;9.226;2023-08-08T14:04:54;2.08;;;0.75;;
13204;SDS011;6667;52.634;9.226;2023-08-08T14:07:21;1.65;;;0.60;;
13204;SDS011;6667;52.634;9.226;2023-08-08T14:09:48;1.65;;;1.00;;
13204;SDS011;6667;52.634;9.226;2023-08-08T14:12:14;1.83;;;0.80;;
13204;SDS011;6667;52.634;9.226;2023-08-08T14:14:43;1.48;;;0.60;;
13204;SDS011;6667;52.634;9.226;2023-08-08T14:17:09;0.88;;;0.80;;
13204;SDS011;6667;52.634;9.226;2023-08-08T14:19:36;1.92;;;0.70;;
13204;SDS011;6667;52.634;9.226;2023-08-08T14:22:03;2.88;;;0.80;;
13204;SDS011;6667;52.634;9.226;2023-08-08T14:24:29;0.60;;;0.60;;
13204;SDS011;6667;52.634;9.226;2023-08-08T14:26:56;1.23;;;0.68;;
13204;SDS011;6667;52.634;9.226;2023-08-08T14:29:23;1.05;;;0.60;;
13204;SDS011;6667;52.634;9.226;2023-08-08T14:31:51;2.60;;;0.80;;
13204;SDS011;6667;52.634;9.226;2023-08-08T14:34:17;0.88;;;0.55;;
13204;SDS011;6667;52.634;9.226;2023-08-08T14:36:44;2.95;;;0.82;;
13204;SDS011;6667;52.634;9.226;2023-08-08T14:39:11;2.70;;;0.73;;
13204;SDS011;6667;52.634;9.226;2023-08-08T14:41:38;1.38;;;1.02;;
13204;SDS011;6667;52.634;9.226;2023-08-08T14:44:04;1.08;;;0.65;;
13204;SDS011;6667;52.634;9.226;2023-08-08T14:46:31;1.52;;;0.80;;
13204;SDS011;6667;52.634;9.226;2023-08-08T14:49:00;0.50;;;0.50;;
13204;SDS011;6667;52.634;9.226;2023-08-08T14:51:29;2.67;;;0.90;;
13204;SDS011;6667;52.634;9.226;2023-08-08T14:53:55;2.88;;;0.70;;
13204;SDS011;6667;52.634;9.226;2023-08-08T14:56:22;1.77;;;1.13;;
13204;SDS011;6667;52.634;9.226;2023-08-08T14:58:49;1.08;;;0.80;;
13204;SDS011;6667;52.634;9.226;2023-08-08T15:01:16;1.65;;;0.80;;
13204;SDS011;6667;52.634;9.226;2023-08-08T15:03:43;0.82;;;0.80;;
13204;SDS011;6667;52.634;9.226;2023-08-08T15:06:11;2.53;;;0.80;;
13204;SDS011;6667;52.634;9.226;2023-08-08T15:08:37;2.00;;;0.93;;
13204;SDS011;6667;52.634;9.226;2023-08-08T15:11:04;3.15;;;1.02;;
13204;SDS011;6667;52.634;9.226;2023-08-08T15:13:32;1.52;;;0.73;;
13204;SDS011;6667;52.634;9.226;2023-08-08T15:15:59;1.83;;;0.90;;
13204;SDS011;6667;52.634;9.226;2023-08-08T15:18:26;3.45;;;0.77;;
13204;SDS011;6667;52.634;9.226;2023-08-08T15:20:52;2.15;;;0.70;;
13204;SDS011;6667;52.634;9.226;2023-08-08T15:23:20;1.45;;;1.10;;
13204;SDS011;6667;52.634;9.226;2023-08-08T15:25:47;1.52;;;0.77;;
13204;SDS011;6667;52.634;9.226;2023-08-08T15:28:14;3.17;;;0.90;;
13204;SDS011;6667;52.634;9.226;2023-08-08T15:30:41;4.47;;;1.00;;
13204;SDS011;6667;52.634;9.226;2023-08-08T15:33:07;2.72;;;1.27;;
13204;SDS011;6667;52.634;9.226;2023-08-08T15:35:34;2.38;;;1.05;;
13204;SDS011;6667;52.634;9.226;2023-08-08T15:38:01;5.13;;;2.05;;
13204;SDS011;6667;52.634;9.226;2023-08-08T15:40:30;2.17;;;1.00;;
13204;SDS011;6667;52.634;9.226;2023-08-08T15:42:57;1.33;;;1.10;;
13204;SDS011;6667;52.634;9.226;2023-08-08T15:45:23;1.13;;;0.90;;
13204;SDS011;6667;52.634;9.226;2023-08-08T15:47:50;1.55;;;0.80;;
13204;SDS011;6667;52.634;9.226;2023-08-08T15:50:18;2.53;;;0.70;;
13204;SDS011;6667;52.634;9.226;2023-08-08T15:52:45;1.40;;;0.80;;
13204;SDS011;6667;52.634;9.226;2023-08-08T15:55:12;2.60;;;0.73;;
13204;SDS011;6667;52.634;9.226;2023-08-08T15:57:40;2.72;;;0.77;;
13204;SDS011;6667;52.634;9.226;2023-08-08T16:00:07;2.72;;;0.82;;
13204;SDS011;6667;52.634;9.226;2023-08-08T16:02:36;3.13;;;1.10;;
13204;SDS011;6667;52.634;9.226;2023-08-08T16:05:02;2.45;;;1.05;;
13204;SDS011;6667;52.634;9.226;2023-08-08T16:07:29;1.92;;;1.15;;
13204;SDS011;6667;52.634;9.226;2023-08-08T16:09:56;3.17;;;1.17;;
13204;SDS011;6667;52.634;9.226;2023-08-08T16:12:23;0.85;;;0.70;;
13204;SDS011;6667;52.634;9.226;2023-08-08T16:14:51;2.22;;;0.80;;
13204;SDS011;6667;52.634;9.226;2023-08-08T16:17:18;0.82;;;0.70;;
13204;SDS011;6667;52.634;9.226;2023-08-08T16:19:44;2.55;;;0.90;;
13204;SDS011;6667;52.634;9.226;2023-08-08T16:22:11;1.90;;;0.63;;
13204;SDS011;6667;52.634;9.226;2023-08-08T16:24:38;2.75;;;0.75;;
13204;SDS011;6667;52.634;9.226;2023-08-08T16:27:05;1.10;;;0.73;;
13204;SDS011;6667;52.634;9.226;2023-08-08T16:29:31;2.70;;;0.80;;
13204;SDS011;6667;52.634;9.226;2023-08-08T16:31:59;0.70;;;0.70;;
13204;SDS011;6667;52.634;9.226;2023-08-08T16:34:26;1.55;;;0.90;;
13204;SDS011;6667;52.634;9.226;2023-08-08T16:36:53;1.92;;;0.63;;
13204;SDS011;6667;52.634;9.226;2023-08-08T16:39:20;1.77;;;0.80;;
13204;SDS011;6667;52.634;9.226;2023-08-08T16:41:47;2.70;;;0.80;;
13204;SDS011;6667;52.634;9.226;2023-08-08T16:44:14;2.22;;;0.73;;
13204;SDS011;6667;52.634;9.226;2023-08-08T16:46:40;0.93;;;0.75;;
13204;SDS011;6667;52.634;9.226;2023-08-08T16:49:08;1.17;;;0.85;;
13204;SDS011;6667;52.634;9.226;2023-08-08T16:51:35;1.67;;;0.75;;
13204;SDS011;6667;52.634;9.226;2023-08-08T16:54:02;2.00;;;0.98;;
13204;SDS011;6667;52.634;9.226;2023-08-08T16:56:29;1.90;;;1.30;;
13204;SDS011;6667;52.634;9.226;2023-08-08T16:58:57;3.17;;;1.05;;
13204;SDS011;6667;52.634;9.226;2023-08-08T17:01:23;2.85;;;0.93;;
13204;SDS011;6667;52.634;9.226;2023-08-08T17:03:50;1.25;;;0.80;;
13204;SDS011;6667;52.634;9.226;2023-08-08T17:06:18;2.15;;;0.90;;
13204;SDS011;6667;52.634;9.226;2023-08-08T17:08:45;3.92;;;1.95;;
13204;SDS011;6667;52.634;9.226;2023-08-08T17:11:12;2.35;;;1.20;;
13204;SDS011;6667;52.634;9.226;2023-08-08T17:13:39;1.27;;;0.80;;
13204;SDS011;6667;52.634;9.226;2023-08-08T17:16:06;1.13;;;0.90;;
13204;SDS011;6667;52.634;9.226;2023-08-08T17:18:32;4.10;;;1.10;;
13204;SDS011;6667;52.634;9.226;2023-08-08T17:20:59;1.83;;;1.10;;
13204;SDS011;6667;52.634;9.226;2023-08-08T17:23:27;1.13;;;0.70;;
13204;SDS011;6667;52.634;9.226;2023-08-08T17:25:54;1.13;;;0.70;;
13204;SDS011;6667;52.634;9.226;2023-08-08T17:28:21;1.08;;;0.80;;
13204;SDS011;6667;52.634;9.226;2023-08-08T17:30:48;3.30;;;0.80;;
13204;SDS011;6667;52.634;9.226;2023-08-08T17:33:14;1.55;;;1.10;;
13204;SDS011;6667;52.634;9.226;2023-08-08T17:35:43;0.93;;;0.82;;
13204;SDS011;6667;52.634;9.226;2023-08-08T17:38:09;1.23;;;1.00;;
13204;SDS011;6667;52.634;9.226;2023-08-08T17:40:38;2.78;;;1.10;;
13204;SDS011;6667;52.634;9.226;2023-08-08T17:43:04;2.78;;;0.75;;
13204;SDS011;6667;52.634;9.226;2023-08-08T17:45:31;2.63;;;1.05;;
13204;SDS011;6667;52.634;9.226;2023-08-08T17:47:58;1.88;;;0.63;;
13204;SDS011;6667;52.634;9.226;2023-08-08T17:50:25;3.35;;;1.00;;
13204;SDS011;6667;52.634;9.226;2023-08-08T17:52:52;2.70;;;1.13;;
13204;SDS011;6667;52.634;9.226;2023-08-08T17:55:18;0.75;;;0.75;;
13204;SDS011;6667;52.634;9.226;2023-08-08T17:57:46;2.00;;;1.48;;
13204;SDS011;6667;52.634;9.226;2023-08-08T18:00:13;1.83;;;0.73;;
13204;SDS011;6667;52.634;9.226;2023-08-08T18:02:42;2.63;;;0.95;;
13204;SDS011;6667;52.634;9.226;2023-08-08T18:05:08;1.77;;;0.93;;
13204;SDS011;6667;52.634;9.226;2023-08-08T18:07:35;1.92;;;0.95;;
13204;SDS011;6667;52.634;9.226;2023-08-08T18:10:02;1.45;;;0.88;;
13204;SDS011;6667;52.634;9.226;2023-08-08T18:12:30;4.22;;;1.50;;
13204;SDS011;6667;52.634;9.226;2023-08-08T18:14:58;2.80;;;1.15;;
13204;SDS011;6667;52.634;9.226;2023-08-08T18:17:24;2.45;;;0.95;;
13204;SDS011;6667;52.634;9.226;2023-08-08T18:19:51;3.97;;;0.80;;
13204;SDS011;6667;52.634;9.226;2023-08-08T18:22:19;3.53;;;1.20;;
13204;SDS011;6667;52.634;9.226;2023-08-08T18:24:46;3.38;;;1.00;;
13204;SDS011;6667;52.634;9.226;2023-08-08T18:27:13;2.85;;;1.20;;
13204;SDS011;6667;52.634;9.226;2023-08-08T18:29:41;3.30;;;0.82;;
13204;SDS011;6667;52.634;9.226;2023-08-08T18:32:09;2.22;;;1.05;;
13204;SDS011;6667;52.634;9.226;2023-08-08T18:34:35;2.13;;;0.95;;
13204;SDS011;6667;52.634;9.226;2023-08-08T18:37:02;3.42;;;1.40;;
13204;SDS011;6667;52.634;9.226;2023-08-08T18:39:29;2.83;;;1.50;;
13204;SDS011;6667;52.634;9.226;2023-08-08T18:41:56;2.75;;;1.10;;
13204;SDS011;6667;52.634;9.226;2023-08-08T18:44:22;1.85;;;0.90;;
13204;SDS011;6667;52.634;9.226;2023-08-08T18:46:49;5.40;;;1.05;;
13204;SDS011;6667;52.634;9.226;2023-08-08T18:49:17;2.83;;;0.83;;
13204;SDS011;6667;52.634;9.226;2023-08-08T18:51:44;3.92;;;0.98;;
13204;SDS011;6667;52.634;9.226;2023-08-08T18:54:10;1.38;;;1.00;;
13204;SDS011;6667;52.634;9.226;2023-08-08T18:56:38;3.45;;;1.13;;
13204;SDS011;6667;52.634;9.226;2023-08-08T18:59:05;2.10;;;0.90;;
13204;SDS011;6667;52.634;9.226;2023-08-08T19:01:31;2.40;;;0.90;;
13204;SDS011;6667;52.634;9.226;2023-08-08T19:03:59;3.77;;;1.00;;
13204;SDS011;6667;52.634;9.226;2023-08-08T19:06:27;3.15;;;1.10;;
13204;SDS011;6667;52.634;9.226;2023-08-08T19:08:54;2.63;;;0.90;;
13204;SDS011;6667;52.634;9.226;2023-08-08T19:11:21;4.60;;;1.07;;
13204;SDS011;6667;52.634;9.226;2023-08-08T19:13:48;1.63;;;0.77;;
13204;SDS011;6667;52.634;9.226;2023-08-08T19:16:15;1.38;;;0.80;;
13204;SDS011;6667;52.634;9.226;2023-08-08T19:18:42;1.07;;;0.80;;
13204;SDS011;6667;52.634;9.226;2023-08-08T19:21:08;2.60;;;0.97;;
13204;SDS011;6667;52.634;9.226;2023-08-08T19:23:36;4.53;;;0.83;;
13204;SDS011;6667;52.634;9.226;2023-08-08T19:26:04;4.10;;;1.05;;
13204;SDS011;6667;52.634;9.226;2023-08-08T19:28:31;7.33;;;1.20;;
13204;SDS011;6667;52.634;9.226;2023-08-08T19:30:58;2.15;;;1.00;;
13204;SDS011;6667;52.634;9.226;2023-08-08T19:33:24;1.80;;;0.75;;
13204;SDS011;6667;52.634;9.226;2023-08-08T19:35:51;1.60;;;1.17;;
13204;SDS011;6667;52.634;9.226;2023-08-08T19:38:20;1.73;;;0.80;;
13204;SDS011;6667;52.634;9.226;2023-08-08T19:40:48;7.30;;;1.50;;
13204;SDS011;6667;52.634;9.226;2023-08-08T19:43:15;2.30;;;1.10;;
13204;SDS011;6667;52.634;9.226;2023-08-08T19:45:43;2.53;;;0.80;;
13204;SDS011;6667;52.634;9.226;2023-08-08T19:48:09;3.10;;;1.00;;
13204;SDS011;6667;52.634;9.226;2023-08-08T19:50:37;2.23;;;0.87;;
13204;SDS011;6667;52.634;9.226;2023-08-08T19:53:05;3.00;;;1.17;;
13204;SDS011;6667;52.634;9.226;2023-08-08T19:55:32;2.50;;;1.03;;
13204;SDS011;6667;52.634;9.226;2023-08-08T19:58:00;1.03;;;0.90;;
13204;SDS011;6667;52.634;9.226;2023-08-08T20:00:27;2.90;;;1.00;;
13204;SDS011;6667;52.634;9.226;2023-08-08T20:02:54;1.63;;;1.00;;
13204;SDS011;6667;52.634;9.226;2023-08-08T20:05:21;1.70;;;0.80;;
13204;SDS011;6667;52.634;9.226;2023-08-08T20:07:49;1.80;;;1.07;;
13204;SDS011;6667;52.634;9.226;2023-08-08T20:10:16;2.23;;;1.00;;
13204;SDS011;6667;52.634;9.226;2023-08-08T20:12:43;1.07;;;0.87;;
13204;SDS011;6667;52.634;9.226;2023-08-08T20:15:11;4.83;;;1.10;;
13204;SDS011;6667;52.634;9.226;2023-08-08T20:17:38;1.10;;;0.97;;
13204;SDS011;6667;52.634;9.226;2023-08-08T20:20:05;0.80;;;0.70;;
13204;SDS011;6667;52.634;9.226;2023-08-08T20:22:32;2.73;;;2.00;;
13204;SDS011;6667;52.634;9.226;2023-08-08T20:25:00;1.57;;;0.90;;
13204;SDS011;6667;52.634;9.226;2023-08-08T20:27:26;2.10;;;0.80;;
13204;SDS011;6667;52.634;9.226;2023-08-08T20:29:53;6.37;;;1.13;;
13204;SDS011;6667;52.634;9.226;2023-08-08T20:32:21;1.87;;;1.10;;
13204;SDS011;6667;52.634;9.226;2023-08-08T20:34:48;2.83;;;1.00;;
13204;SDS011;6667;52.634;9.226;2023-08-08T20:37:15;2.03;;;0.93;;
13204;SDS011;6667;52.634;9.226;2023-08-08T20:39:44;2.73;;;0.83;;
13204;SDS011;6667;52.634;9.226;2023-08-08T20:42:11;3.53;;;0.97;;
13204;SDS011;6667;52.634;9.226;2023-08-08T20:44:37;2.83;;;1.30;;
13204;SDS011;6667;52.634;9.226;2023-08-08T20:47:04;1.30;;;0.80;;
13204;SDS011;6667;52.634;9.226;2023-08-08T20:49:32;2.70;;;1.27;;
13204;SDS011;6667;52.634;9.226;2023-08-08T20:51:59;2.87;;;1.00;;
13204;SDS011;6667;52.634;9.226;2023-08-08T20:54:26;2.43;;;1.00;;
13204;SDS011;6667;52.634;9.226;2023-08-08T20:56:57;5.23;;;1.47;;
13204;SDS011;6667;52.634;9.226;2023-08-08T20:59:25;2.23;;;1.00;;
13204;SDS011;6667;52.634;9.226;2023-08-08T21:01:52;2.37;;;0.97;;
13204;SDS011;6667;52.634;9.226;2023-08-08T21:04:19;2.23;;;1.10;;
13204;SDS011;6667;52.634;9.226;2023-08-08T21:06:47;1.97;;;0.90;;
13204;SDS011;6667;52.634;9.226;2023-08-08T21:09:37;3.23;;;1.20;;
13204;SDS011;6667;52.634;9.226;2023-08-08T21:12:04;3.37;;;1.03;;
13204;SDS011;6667;52.634;9.226;2023-08-08T21:17:15;6.17;;;1.10;;
13204;SDS011;6667;52.634;9.226;2023-08-08T21:19:42;1.80;;;0.80;;
13204;SDS011;6667;52.634;9.226;2023-08-08T21:22:10;2.73;;;1.10;;
13204;SDS011;6667;52.634;9.226;2023-08-08T21:24:37;2.53;;;1.10;;
13204;SDS011;6667;52.634;9.226;2023-08-08T21:27:04;2.77;;;0.93;;
13204;SDS011;6667;52.634;9.226;2023-08-08T21:29:31;2.57;;;0.90;;
13204;SDS011;6667;52.634;9.226;2023-08-08T21:31:57;2.20;;;1.00;;
13204;SDS011;6667;52.634;9.226;2023-08-08T21:34:24;4.37;;;1.00;;
13204;SDS011;6667;52.634;9.226;2023-08-08T21:36:51;1.70;;;1.03;;
13204;SDS011;6667;52.634;9.226;2023-08-08T21:39:19;2.03;;;1.03;;
13204;SDS011;6667;52.634;9.226;2023-08-08T21:41:46;0.97;;;0.80;;
13204;SDS011;6667;52.634;9.226;2023-08-08T21:44:13;3.60;;;1.03;;
13204;SDS011;6667;52.634;9.226;2023-08-08T21:46:42;3.03;;;1.00;;
13204;SDS011;6667;52.634;9.226;2023-08-08T21:49:09;2.60;;;1.00;;
13204;SDS011;6667;52.634;9.226;2023-08-08T21:51:36;2.50;;;1.07;;
13204;SDS011;6667;52.634;9.226;2023-08-08T21:56:59;1.93;;;1.00;;